createdAt,value
2019-04-04T00:04:22.845Z,79.17
2019-04-04T00:06:52.927Z,186.83
2019-04-04T00:09:22.258Z,131.67
2019-04-04T00:11:51.615Z,204.37
2019-04-04T00:14:20.889Z,148.20
2019-04-04T00:16:50.081Z,185.57
2019-04-04T00:19:19.307Z,185.80
2019-04-04T00:21:48.698Z,126.67
2019-04-04T00:24:18.018Z,170.57
2019-04-04T00:26:47.405Z,167.17
2019-04-04T00:29:17.906Z,175.67
2019-04-04T00:31:49.497Z,189.10
2019-04-04T00:34:19.638Z,124.60
2019-04-04T00:36:49.663Z,130.90
2019-04-04T00:39:19.156Z,119.97
2019-04-04T00:41:48.576Z,93.00
2019-04-04T00:44:18.917Z,98.77
2019-04-04T00:46:48.377Z,87.33
2019-04-04T00:49:17.697Z,69.80
2019-04-04T00:51:46.950Z,83.93
2019-04-04T00:54:16.217Z,80.33
2019-04-04T00:56:46.898Z,63.50
2019-04-04T00:59:16.366Z,68.13
2019-04-04T01:01:45.705Z,75.40
2019-04-04T01:04:14.981Z,56.13
2019-04-04T01:06:44.250Z,60.47
2019-04-04T01:09:13.826Z,59.87
2019-04-04T01:11:43.189Z,52.10
2019-04-04T01:14:12.311Z,63.50
2019-04-04T01:16:41.604Z,50.73
2019-04-04T01:19:10.806Z,48.10
2019-04-04T01:21:40.130Z,32.80
2019-04-04T01:24:09.371Z,25.20
2019-04-04T01:26:38.499Z,38.93
2019-04-04T01:29:10.198Z,28.83
2019-04-04T01:31:38.720Z,28.80
2019-04-04T01:34:08.019Z,21.77
2019-04-04T01:36:37.342Z,23.50
2019-04-04T01:39:06.852Z,28.23
2019-04-04T01:41:36.861Z,20.00
2019-04-04T01:44:10.737Z,17.40
2019-04-04T01:46:38.021Z,25.07
2019-04-04T01:49:07.162Z,19.80
2019-04-04T01:51:36.520Z,14.63
2019-04-04T01:54:05.743Z,15.33
2019-04-04T01:56:36.755Z,17.80
2019-04-04T01:59:07.077Z,15.27
2019-04-04T02:01:37.614Z,32.07
2019-04-04T02:04:07.583Z,12.17
2019-04-04T02:06:36.802Z,10.53
2019-04-04T02:09:07.417Z,9.97
2019-04-04T02:11:37.632Z,9.23
2019-04-04T02:14:07.253Z,7.47
2019-04-04T02:16:36.459Z,12.67
2019-04-04T02:19:06.228Z,13.83
2019-04-04T02:21:35.618Z,16.53
2019-04-04T02:24:06.659Z,13.40
2019-04-04T02:26:36.614Z,19.77
2019-04-04T02:29:06.850Z,11.20
2019-04-04T02:31:37.733Z,13.80
2019-04-04T02:34:07.607Z,14.13
2019-04-04T02:36:36.891Z,12.10
2019-04-04T02:39:08.455Z,15.67
2019-04-04T02:41:37.753Z,14.17
2019-04-04T02:44:08.293Z,16.37
2019-04-04T02:46:38.177Z,14.40
2019-04-04T02:49:08.210Z,15.30
2019-04-04T02:51:41.161Z,13.40
2019-04-04T02:54:09.189Z,14.33
2019-04-04T02:56:38.467Z,13.93
2019-04-04T02:59:09.390Z,13.60
2019-04-04T03:01:38.739Z,12.10
2019-04-04T03:04:08.274Z,14.57
2019-04-04T03:06:37.504Z,12.37
2019-04-04T03:09:10.002Z,14.77
2019-04-04T03:11:38.357Z,10.97
2019-04-04T03:14:07.861Z,13.20
2019-04-04T03:16:37.059Z,14.13
2019-04-04T03:19:09.965Z,15.40
2019-04-04T03:21:37.314Z,16.33
2019-04-04T03:24:10.575Z,15.87
2019-04-04T03:26:39.774Z,16.07
2019-04-04T03:29:10.534Z,20.53
2019-04-04T03:31:39.864Z,18.07
2019-04-04T03:34:12.155Z,17.97
2019-04-04T03:36:39.902Z,18.80
2019-04-04T03:39:09.240Z,19.73
2019-04-04T03:41:38.529Z,20.40
2019-04-04T03:44:07.791Z,15.87
2019-04-04T03:46:38.850Z,15.20
2019-04-04T03:49:07.529Z,17.50
2019-04-04T03:51:38.296Z,17.63
2019-04-04T03:54:09.373Z,12.70
2019-04-04T03:56:39.346Z,10.30
2019-04-04T03:59:08.840Z,12.13
2019-04-04T04:01:38.042Z,12.90
2019-04-04T04:04:07.355Z,15.73
2019-04-04T04:06:41.254Z,15.90
2019-04-04T04:09:07.378Z,14.17
2019-04-04T04:11:37.421Z,11.87
2019-04-04T04:14:07.393Z,11.43
2019-04-04T04:16:36.507Z,10.73
2019-04-04T04:19:05.604Z,15.80
2019-04-04T04:21:34.967Z,13.53
2019-04-04T04:24:04.159Z,13.77
2019-04-04T04:26:33.414Z,10.17
2019-04-04T04:29:02.556Z,12.47
2019-04-04T04:31:31.852Z,10.00
2019-04-04T04:34:01.854Z,12.23
2019-04-04T04:36:31.227Z,16.10
2019-04-04T04:39:01.351Z,15.83
2019-04-04T04:41:31.281Z,16.07
2019-04-04T04:44:02.770Z,16.67
2019-04-04T04:46:31.394Z,15.13
2019-04-04T04:49:03.315Z,12.10
2019-04-04T04:51:31.347Z,14.63
2019-04-04T04:54:03.570Z,14.50
2019-04-04T04:56:32.686Z,10.47
2019-04-04T04:59:01.853Z,12.27
2019-04-04T05:01:31.098Z,11.33
2019-04-04T05:04:02.539Z,11.03
2019-04-04T05:06:31.010Z,9.73
2019-04-04T05:09:00.012Z,11.90
2019-04-04T05:11:28.991Z,11.80
2019-04-04T05:13:58.843Z,12.30
2019-04-04T05:16:27.963Z,13.17
2019-04-04T05:18:56.981Z,11.03
2019-04-04T05:21:28.733Z,11.43
2019-04-04T05:23:56.882Z,12.53
2019-04-04T05:26:26.127Z,12.53
2019-04-04T05:28:57.025Z,13.07
2019-04-04T05:31:26.524Z,14.27
2019-04-04T05:33:58.761Z,15.43
2019-04-04T05:36:26.732Z,12.03
2019-04-04T05:38:55.884Z,11.57
2019-04-04T05:41:27.260Z,12.07
2019-04-04T05:43:56.181Z,14.33
2019-04-04T05:46:25.515Z,13.73
2019-04-04T05:48:54.865Z,14.27
2019-04-04T05:51:23.909Z,12.33
2019-04-04T05:53:52.937Z,15.57
2019-04-04T05:56:24.303Z,15.30
2019-04-04T05:58:53.044Z,15.70
2019-04-04T06:01:23.127Z,16.30
2019-04-04T06:03:52.143Z,15.43
2019-04-04T06:06:21.195Z,18.07
2019-04-04T06:08:50.212Z,19.73
2019-04-04T06:11:21.658Z,18.07
2019-04-04T06:13:49.921Z,22.40
2019-04-04T06:16:19.216Z,20.13
2019-04-04T06:18:49.257Z,23.77
2019-04-04T06:21:18.839Z,18.67
2019-04-04T06:23:48.433Z,18.33
2019-04-04T06:26:17.653Z,17.97
2019-04-04T06:28:46.670Z,19.07
2019-04-04T06:31:15.840Z,26.97
2019-04-04T06:33:46.032Z,18.07
2019-04-04T06:36:17.627Z,23.83
2019-04-04T06:38:45.743Z,27.53
2019-04-04T06:41:14.823Z,28.33
2019-04-04T06:43:43.855Z,21.37
2019-04-04T06:46:13.000Z,46.57
2019-04-04T06:48:42.222Z,40.63
2019-04-04T06:51:14.332Z,29.90
2019-04-04T06:53:42.783Z,32.27
2019-04-04T06:56:11.818Z,49.70
2019-04-04T06:58:41.042Z,61.33
2019-04-04T07:01:11.244Z,104.20
2019-04-04T07:03:40.445Z,70.00
2019-04-04T07:06:10.171Z,81.43
2019-04-04T07:08:39.902Z,54.13
2019-04-04T07:11:21.288Z,87.50
2019-04-04T07:13:42.641Z,73.30
2019-04-04T07:16:10.426Z,118.13
2019-04-04T07:18:40.917Z,94.97
2019-04-04T07:21:10.116Z,76.40
2019-04-04T07:23:41.700Z,99.70
2019-04-04T07:26:14.575Z,95.00
2019-04-04T07:28:41.433Z,82.23
2019-04-04T07:31:10.450Z,68.60
2019-04-04T07:33:42.612Z,71.80
2019-04-04T07:36:10.161Z,129.63
2019-04-04T07:38:39.199Z,171.27
2019-04-04T07:41:08.965Z,165.83
2019-04-04T07:43:39.539Z,209.43
2019-04-04T07:46:16.173Z,230.60
2019-04-04T07:48:39.612Z,273.93
2019-04-04T07:51:08.901Z,332.03
2019-04-04T07:53:37.962Z,320.83
2019-04-04T07:56:07.148Z,374.00
2019-04-04T07:58:37.357Z,375.67
2019-04-04T08:01:06.392Z,449.67
2019-04-04T08:03:35.437Z,375.10
2019-04-04T08:06:04.790Z,449.23
2019-04-04T08:08:33.925Z,387.30
2019-04-04T08:11:02.962Z,471.00
2019-04-04T08:13:32.080Z,396.30
2019-04-04T08:16:01.174Z,445.60
2019-04-04T08:18:30.221Z,351.03
2019-04-04T08:20:59.284Z,352.30
2019-04-04T08:23:32.426Z,351.90
2019-04-04T08:26:01.875Z,372.70
2019-04-04T08:28:30.890Z,370.37
2019-04-04T08:30:59.937Z,345.17
2019-04-04T08:33:29.448Z,398.40
2019-04-04T08:36:05.815Z,347.20
2019-04-04T08:38:29.610Z,355.83
2019-04-04T08:40:58.762Z,246.03
2019-04-04T08:43:27.808Z,406.63
2019-04-04T08:45:57.161Z,293.13
2019-04-04T08:48:26.555Z,405.03
2019-04-04T08:50:55.664Z,292.93
2019-04-04T08:53:25.022Z,444.17
2019-04-04T08:55:54.316Z,397.20
2019-04-04T08:58:23.406Z,524.47
2019-04-04T09:00:52.626Z,548.57
2019-04-04T09:03:21.716Z,591.57
2019-04-04T09:05:50.794Z,672.87
2019-04-04T09:08:19.833Z,664.60
2019-04-04T09:10:48.887Z,757.10
2019-04-04T09:13:18.041Z,790.67
2019-04-04T09:15:47.150Z,754.30
2019-04-04T09:18:16.169Z,636.27
2019-04-04T09:20:45.309Z,665.73
2019-04-04T09:23:14.356Z,680.67
2019-04-04T09:25:44.124Z,560.80
2019-04-04T09:28:13.854Z,671.47
2019-04-04T09:30:43.240Z,645.63
2019-04-04T09:33:12.306Z,701.07
2019-04-04T09:35:46.958Z,605.03
2019-04-04T09:38:16.626Z,567.43
2019-04-04T09:40:45.812Z,680.03
2019-04-04T09:43:14.761Z,566.03
2019-04-04T09:45:43.818Z,479.70
2019-04-04T09:48:13.981Z,603.67
2019-04-04T09:50:43.049Z,586.90
2019-04-04T09:53:12.044Z,601.87
2019-04-04T09:55:41.124Z,638.40
2019-04-04T09:58:10.255Z,736.03
2019-04-04T10:00:39.319Z,695.37
2019-04-04T10:03:08.407Z,450.20
2019-04-04T10:05:37.565Z,589.83
2019-04-04T10:08:07.088Z,669.93
2019-04-04T10:10:36.149Z,528.73
2019-04-04T10:13:05.279Z,702.17
2019-04-04T10:15:34.316Z,722.93
2019-04-04T10:18:03.381Z,648.33
2019-04-04T10:20:33.398Z,673.93
2019-04-04T10:23:02.793Z,665.83
2019-04-04T10:25:31.823Z,752.07
2019-04-04T10:28:00.853Z,588.73
2019-04-04T10:30:30.022Z,605.93
2019-04-04T10:32:59.090Z,782.83
2019-04-04T10:35:28.224Z,859.33
2019-04-04T10:37:57.271Z,736.87
2019-04-04T10:40:26.437Z,762.47
2019-04-04T10:42:56.780Z,736.53
2019-04-04T10:45:25.847Z,820.10
2019-04-04T10:47:55.085Z,792.60
2019-04-04T10:50:24.214Z,836.03
2019-04-04T10:52:53.278Z,654.60
2019-04-04T10:55:22.654Z,770.57
2019-04-04T10:57:51.837Z,789.10
2019-04-04T11:00:22.484Z,907.67
2019-04-04T11:02:51.661Z,883.87
2019-04-04T11:05:20.704Z,816.93
2019-04-04T11:07:49.718Z,883.47
2019-04-04T11:13:36.083Z,652.70
2019-04-04T11:16:05.157Z,715.53
2019-04-04T11:18:34.250Z,638.87
2019-04-04T11:21:03.265Z,750.07
2019-04-04T11:23:33.303Z,659.60
2019-04-04T11:26:02.447Z,597.13
2019-04-04T11:28:31.575Z,857.63
2019-04-04T11:31:00.675Z,844.50
2019-04-04T11:33:29.728Z,691.83
2019-04-04T11:35:58.845Z,761.20
2019-04-04T11:38:27.885Z,721.60
2019-04-04T11:40:56.928Z,696.87
2019-04-04T11:43:25.986Z,573.63
2019-04-04T11:45:55.405Z,617.43
2019-04-04T11:48:24.502Z,877.53
2019-04-04T11:50:53.555Z,906.43
2019-04-04T11:53:22.669Z,992.53
2019-04-04T11:55:51.786Z,884.90
2019-04-04T11:58:20.819Z,839.37
2019-04-04T12:00:51.596Z,999.90
2019-04-04T12:03:20.800Z,939.80
2019-04-04T12:05:49.923Z,890.97
2019-04-04T12:08:18.949Z,997.53
2019-04-04T12:10:47.909Z,979.97
2019-04-04T12:13:16.927Z,886.87
2019-04-04T12:15:45.958Z,834.23
2019-04-04T12:18:14.973Z,948.77
2019-04-04T12:20:44.028Z,997.57
2019-04-04T12:23:13.063Z,873.10
2019-04-04T12:25:42.138Z,834.93
2019-04-04T12:28:11.182Z,827.37
2019-04-04T12:30:40.309Z,997.97
2019-04-04T12:33:09.345Z,977.70
2019-04-04T12:35:38.394Z,938.43
2019-04-04T12:38:08.442Z,892.77
2019-04-04T12:40:37.463Z,971.63
2019-04-04T12:43:06.575Z,687.03
2019-04-04T12:45:35.622Z,982.63
2019-04-04T12:48:04.641Z,921.83
2019-04-04T12:50:33.603Z,762.87
2019-04-04T12:53:02.923Z,878.40
2019-04-04T12:55:31.988Z,960.17
2019-04-04T12:58:01.046Z,723.43
2019-04-04T13:00:30.119Z,960.33
2019-04-04T13:02:59.165Z,890.77
2019-04-04T13:05:28.213Z,999.90
2019-04-04T13:07:57.322Z,990.80
2019-04-04T13:10:32.849Z,980.60
2019-04-04T13:12:57.311Z,754.97
2019-04-04T13:15:26.359Z,845.50
2019-04-04T13:17:55.433Z,999.90
2019-04-04T13:20:24.451Z,957.70
2019-04-04T13:22:53.595Z,999.90
2019-04-04T13:25:22.727Z,871.93
2019-04-04T13:27:51.801Z,982.27
2019-04-04T13:30:21.921Z,986.37
2019-04-04T13:32:51.389Z,922.30
2019-04-04T13:35:20.607Z,954.13
2019-04-04T13:37:49.834Z,944.00
2019-04-04T13:40:18.910Z,998.70
2019-04-04T13:42:48.004Z,916.93
2019-04-04T13:45:17.404Z,995.07
2019-04-04T13:47:46.657Z,797.33
2019-04-04T13:50:19.483Z,918.40
2019-04-04T13:52:46.746Z,890.50
2019-04-04T13:55:15.871Z,999.90
2019-04-04T13:57:45.438Z,976.77
2019-04-04T14:00:16.397Z,873.30
2019-04-04T14:02:45.838Z,480.93
2019-04-04T14:05:15.010Z,652.13
2019-04-04T14:07:44.365Z,594.50
2019-04-04T14:10:16.974Z,587.20
2019-04-04T14:12:44.290Z,839.53
2019-04-04T14:15:13.515Z,774.93
2019-04-04T14:17:43.976Z,580.43
2019-04-04T14:20:13.439Z,461.57
2019-04-04T14:22:42.546Z,622.63
2019-04-04T14:25:12.020Z,652.67
2019-04-04T14:27:41.449Z,558.67
2019-04-04T14:30:11.949Z,704.33
2019-04-04T14:32:41.776Z,514.57
2019-04-04T14:35:11.321Z,451.27
2019-04-04T14:37:42.091Z,602.87
2019-04-04T14:40:11.416Z,500.27
2019-04-04T14:42:40.532Z,415.30
2019-04-04T14:45:09.891Z,460.83
2019-04-04T14:47:38.960Z,465.40
2019-04-04T14:50:08.426Z,483.53
2019-04-04T14:52:39.464Z,447.47
2019-04-04T14:55:08.245Z,414.57
2019-04-04T14:57:37.307Z,316.90
2019-04-04T15:00:09.604Z,284.47
2019-04-04T15:02:39.818Z,251.93
2019-04-04T15:05:09.002Z,559.37
2019-04-04T15:07:38.051Z,490.23
2019-04-04T15:10:07.075Z,280.27
2019-04-04T15:12:36.398Z,286.67
2019-04-04T15:15:05.876Z,272.23
2019-04-04T15:17:34.948Z,314.67
2019-04-04T15:20:05.276Z,254.47
2019-04-04T15:22:34.302Z,349.77
2019-04-04T15:25:03.418Z,330.20
2019-04-04T15:27:32.529Z,295.73
2019-04-04T15:30:01.576Z,376.40
2019-04-04T15:32:30.614Z,217.27
2019-04-04T15:34:59.676Z,272.47
2019-04-04T15:37:28.714Z,382.80
2019-04-04T15:39:57.766Z,366.00
2019-04-04T15:42:26.832Z,192.67
2019-04-04T15:44:56.166Z,182.93
2019-04-04T15:47:26.658Z,215.10
2019-04-04T15:49:55.647Z,217.53
2019-04-04T15:52:24.645Z,272.80
2019-04-04T15:54:53.708Z,178.83
2019-04-04T15:57:22.749Z,140.63
2019-04-04T15:59:51.819Z,220.33
2019-04-04T16:02:20.837Z,253.70
2019-04-04T16:04:50.078Z,154.03
2019-04-04T16:07:21.309Z,196.33
2019-04-04T16:09:50.346Z,202.63
2019-04-04T16:12:19.415Z,211.57
2019-04-04T16:14:48.471Z,188.00
2019-04-04T16:17:17.548Z,192.20
2019-04-04T16:19:46.647Z,242.47
2019-04-04T16:22:15.727Z,188.13
2019-04-04T16:24:44.813Z,154.13
2019-04-04T16:27:13.863Z,135.23
2019-04-04T16:29:44.224Z,256.53
2019-04-04T16:32:13.575Z,143.90
2019-04-04T16:34:42.674Z,130.33
2019-04-04T16:37:11.719Z,179.53
2019-04-04T16:39:40.782Z,153.17
2019-04-04T16:42:09.949Z,235.70
2019-04-04T16:44:38.995Z,264.80
2019-04-04T16:47:08.025Z,176.27
2019-04-04T16:49:38.320Z,137.83
2019-04-04T16:52:07.541Z,129.27
2019-04-04T16:54:36.592Z,145.03
2019-04-04T16:57:06.708Z,163.83
2019-04-04T16:59:35.825Z,180.60
2019-04-04T17:02:04.874Z,151.03
2019-04-04T17:04:33.909Z,196.93
2019-04-04T17:07:02.998Z,133.57
2019-04-04T17:09:32.056Z,216.50
2019-04-04T17:12:09.428Z,167.33
2019-04-04T17:14:33.168Z,160.60
2019-04-04T17:17:02.418Z,134.17
2019-04-04T17:19:31.526Z,152.93
2019-04-04T17:22:00.548Z,119.07
2019-04-04T17:24:29.589Z,131.23
2019-04-04T17:26:58.652Z,229.67
2019-04-04T17:29:27.987Z,394.57
2019-04-04T17:31:57.233Z,133.73
2019-04-04T17:34:26.370Z,155.97
2019-04-04T17:36:55.662Z,148.83
2019-04-04T17:39:25.389Z,133.27
2019-04-04T17:41:55.672Z,141.00
2019-04-04T17:44:26.244Z,88.23
2019-04-04T17:46:56.248Z,157.77
2019-04-04T17:49:26.241Z,139.57
2019-04-04T17:51:55.991Z,155.53
2019-04-04T17:54:26.002Z,130.43
2019-04-04T17:56:56.024Z,122.27
2019-04-04T17:59:30.153Z,122.90
2019-04-04T18:01:59.025Z,135.90
2019-04-04T18:04:29.884Z,120.53
2019-04-04T18:06:59.745Z,255.37
2019-04-04T18:09:32.020Z,145.23
2019-04-04T18:12:02.776Z,85.73
2019-04-04T18:14:32.196Z,112.13
2019-04-04T18:17:01.234Z,109.60
2019-04-04T18:19:30.329Z,105.17
2019-04-04T18:21:59.362Z,234.07
2019-04-04T18:24:28.428Z,127.00
2019-04-04T18:26:57.527Z,119.50
2019-04-04T18:29:26.533Z,116.63
2019-04-04T18:31:55.518Z,87.63
2019-04-04T18:34:24.525Z,117.43
2019-04-04T18:36:53.587Z,90.23
2019-04-04T18:39:22.609Z,108.17
2019-04-04T18:41:51.685Z,101.60
2019-04-04T18:44:20.688Z,153.00
2019-04-04T18:46:49.804Z,151.27
2019-04-04T18:49:18.845Z,127.80
2019-04-04T18:51:47.958Z,116.17
2019-04-04T18:54:17.218Z,182.13
2019-04-04T18:56:46.295Z,134.73
2019-04-04T18:59:15.314Z,93.53
2019-04-04T19:01:44.478Z,95.97
2019-04-04T19:04:13.508Z,115.40
2019-04-04T19:06:42.589Z,87.97
2019-04-04T19:09:14.996Z,79.40
2019-04-04T19:11:44.734Z,132.33
2019-04-04T19:14:15.355Z,188.60
2019-04-04T19:16:45.279Z,124.37
2019-04-04T19:19:15.013Z,130.77
2019-04-04T19:21:44.935Z,156.70
2019-04-04T19:24:15.284Z,161.03
2019-04-04T19:26:45.754Z,130.63
2019-04-04T19:29:16.900Z,150.27
2019-04-04T19:31:47.166Z,123.80
2019-04-04T19:34:18.088Z,101.20
2019-04-04T19:36:48.121Z,141.47
2019-04-04T19:39:18.402Z,128.23
2019-04-04T19:41:48.454Z,88.80
2019-04-04T19:44:18.051Z,187.33
2019-04-04T19:46:47.117Z,155.13
2019-04-04T19:49:16.231Z,125.63
2019-04-04T19:51:45.747Z,115.67
2019-04-04T19:54:15.334Z,101.37
2019-04-04T19:56:45.048Z,110.30
2019-04-04T19:59:14.610Z,142.53
2019-04-04T20:01:44.322Z,130.97
2019-04-04T20:04:14.354Z,192.53
2019-04-04T20:06:44.251Z,165.80
2019-04-04T20:09:13.414Z,186.70
2019-04-04T20:11:42.581Z,195.73
2019-04-04T20:14:11.778Z,127.33
2019-04-04T20:16:40.865Z,120.40
2019-04-04T20:19:09.868Z,104.67
2019-04-04T20:21:39.171Z,179.90
2019-04-04T20:24:08.445Z,87.37
2019-04-04T20:26:37.492Z,111.20
2019-04-04T20:29:06.736Z,120.80
2019-04-04T20:31:35.765Z,139.20
2019-04-04T20:34:06.145Z,129.10
2019-04-04T20:36:35.515Z,99.93
2019-04-04T20:39:06.199Z,116.67
2019-04-04T20:41:35.833Z,151.03
2019-04-04T20:44:04.862Z,114.50
2019-04-04T20:46:33.913Z,184.47
2019-04-04T20:49:02.901Z,145.90
2019-04-04T20:51:31.975Z,168.47
2019-04-04T20:54:01.054Z,181.37
2019-04-04T20:56:30.090Z,172.63
2019-04-04T20:58:59.108Z,151.17
2019-04-04T21:01:28.327Z,162.53
2019-04-04T21:03:57.387Z,153.73
2019-04-04T21:06:26.431Z,123.13
2019-04-04T21:08:55.666Z,169.30
2019-04-04T21:11:24.735Z,143.57
2019-04-04T21:13:56.303Z,133.40
2019-04-04T21:16:24.448Z,186.73
2019-04-04T21:18:53.548Z,131.73
2019-04-04T21:21:22.624Z,166.23
2019-04-04T21:23:51.708Z,117.07
2019-04-04T21:26:20.906Z,245.20
2019-04-04T21:28:50.019Z,148.87
2019-04-04T21:31:19.071Z,102.47
2019-04-04T21:33:48.101Z,328.80
2019-04-04T21:36:17.120Z,114.27
2019-04-04T21:38:46.243Z,190.40
2019-04-04T21:41:15.344Z,115.77
2019-04-04T21:43:44.531Z,114.03
2019-04-04T21:46:13.655Z,150.07
2019-04-04T21:48:42.917Z,181.97
2019-04-04T21:51:11.930Z,178.53
2019-04-04T21:53:41.009Z,239.23
2019-04-04T21:56:10.029Z,182.83
2019-04-04T21:58:39.366Z,157.97
2019-04-04T22:01:08.739Z,156.47
2019-04-04T22:03:37.951Z,166.83
2019-04-04T22:06:07.139Z,314.87
2019-04-04T22:08:36.335Z,190.63
2019-04-04T22:11:05.493Z,382.40
2019-04-04T22:13:34.800Z,185.47
2019-04-04T22:16:04.301Z,232.30
2019-04-04T22:18:33.371Z,143.20
2019-04-04T22:21:02.519Z,167.60
2019-04-04T22:23:31.889Z,162.80
2019-04-04T22:26:01.125Z,196.60
2019-04-04T22:28:30.557Z,188.87
2019-04-04T22:30:59.860Z,171.30
2019-04-04T22:33:48.426Z,151.07
2019-04-04T22:36:17.665Z,62.73
2019-04-04T22:38:46.988Z,127.00
2019-04-04T22:41:16.360Z,150.00
2019-04-04T22:43:45.910Z,166.60
2019-04-04T22:46:15.094Z,72.33
2019-04-04T22:48:44.420Z,146.93
2019-04-04T22:51:13.462Z,164.57
2019-04-04T22:53:42.544Z,141.67
2019-04-04T22:56:11.767Z,143.63
2019-04-04T22:58:41.051Z,197.50
2019-04-04T23:01:10.138Z,152.67
2019-04-04T23:03:39.294Z,284.67
2019-04-04T23:06:08.458Z,153.90
2019-04-04T23:08:37.670Z,90.97
2019-04-04T23:11:07.028Z,102.63
2019-04-04T23:13:36.298Z,219.87
2019-04-04T23:16:05.617Z,139.77
2019-04-04T23:18:34.914Z,178.70
2019-04-04T23:21:04.210Z,160.50
2019-04-04T23:23:33.214Z,230.30
2019-04-04T23:26:02.447Z,146.33
2019-04-04T23:28:31.635Z,136.87
2019-04-04T23:31:01.087Z,85.13
2019-04-04T23:33:30.415Z,141.00
2019-04-04T23:36:00.745Z,148.63
2019-04-04T23:38:30.060Z,161.23
2019-04-04T23:40:59.415Z,186.13
2019-04-04T23:43:28.617Z,117.87
2019-04-04T23:45:58.133Z,155.23
2019-04-04T23:48:27.547Z,203.63
2019-04-04T23:50:56.673Z,155.23
2019-04-04T23:53:25.950Z,106.90
2019-04-04T23:55:55.395Z,103.07
2019-04-04T23:58:24.682Z,112.50
